sensor_id;sensor_type;location;lat;lon;timestamp;temperature;humidity
23633;DHT22;11993;48.748;9.166;2023-05-29T00:02:07;18.10;48.70
23633;DHT22;11993;48.748;9.166;2023-05-29T00:04:33;18.00;49.00
23633;DHT22;11993;48.748;9.166;2023-05-29T00:06:59;17.90;49.50
23633;DHT22;11993;48.748;9.166;2023-05-29T00:09:24;17.90;49.50
23633;DHT22;11993;48.748;9.166;2023-05-29T00:11:50;17.90;49.70
23633;DHT22;11993;48.748;9.166;2023-05-29T00:14:18;17.90;49.70
23633;DHT22;11993;48.748;9.166;2023-05-29T00:16:48;17.90;49.50
23633;DHT22;11993;48.748;9.166;2023-05-29T00:19:14;18.00;48.80
23633;DHT22;11993;48.748;9.166;2023-05-29T00:21:42;17.90;48.30
23633;DHT22;11993;48.748;9.166;2023-05-29T00:24:08;18.00;48.40
23633;DHT22;11993;48.748;9.166;2023-05-29T00:26:33;17.80;49.30
23633;DHT22;11993;48.748;9.166;2023-05-29T00:28:59;17.70;50.30
23633;DHT22;11993;48.748;9.166;2023-05-29T00:31:24;17.60;50.60
23633;DHT22;11993;48.748;9.166;2023-05-29T00:33:50;17.50;51.40
23633;DHT22;11993;48.748;9.166;2023-05-29T00:36:15;17.30;51.80
23633;DHT22;11993;48.748;9.166;2023-05-29T00:38:41;17.30;52.00
23633;DHT22;11993;48.748;9.166;2023-05-29T00:41:07;17.10;52.90
23633;DHT22;11993;48.748;9.166;2023-05-29T00:43:33;17.10;53.20
23633;DHT22;11993;48.748;9.166;2023-05-29T00:45:59;16.90;53.50
23633;DHT22;11993;48.748;9.166;2023-05-29T00:48:25;16.90;53.90
23633;DHT22;11993;48.748;9.166;2023-05-29T00:50:51;16.90;54.00
23633;DHT22;11993;48.748;9.166;2023-05-29T00:53:17;17.00;54.00
23633;DHT22;11993;48.748;9.166;2023-05-29T00:55:43;16.80;54.20
23633;DHT22;11993;48.748;9.166;2023-05-29T00:58:08;16.70;54.30
23633;DHT22;11993;48.748;9.166;2023-05-29T01:00:34;16.90;54.00
23633;DHT22;11993;48.748;9.166;2023-05-29T01:03:03;16.90;53.80
23633;DHT22;11993;48.748;9.166;2023-05-29T01:05:33;17.00;53.60
23633;DHT22;11993;48.748;9.166;2023-05-29T01:07:58;16.80;53.80
23633;DHT22;11993;48.748;9.166;2023-05-29T01:10:24;16.90;53.80
23633;DHT22;11993;48.748;9.166;2023-05-29T01:12:59;16.90;53.60
23633;DHT22;11993;48.748;9.166;2023-05-29T01:15:41;16.70;53.90
23633;DHT22;11993;48.748;9.166;2023-05-29T01:21:10;16.70;54.50
23633;DHT22;11993;48.748;9.166;2023-05-29T01:23:57;16.60;54.50
23633;DHT22;11993;48.748;9.166;2023-05-29T01:26:56;16.60;54.90
23633;DHT22;11993;48.748;9.166;2023-05-29T01:29:26;16.60;54.90
23633;DHT22;11993;48.748;9.166;2023-05-29T01:31:52;16.30;55.50
23633;DHT22;11993;48.748;9.166;2023-05-29T01:34:19;16.30;55.70
23633;DHT22;11993;48.748;9.166;2023-05-29T01:36:45;16.40;55.60
23633;DHT22;11993;48.748;9.166;2023-05-29T01:39:12;16.30;55.80
23633;DHT22;11993;48.748;9.166;2023-05-29T01:41:38;16.40;55.50
23633;DHT22;11993;48.748;9.166;2023-05-29T01:44:07;16.40;55.30
23633;DHT22;11993;48.748;9.166;2023-05-29T01:46:42;16.40;55.40
23633;DHT22;11993;48.748;9.166;2023-05-29T01:49:09;16.50;55.50
23633;DHT22;11993;48.748;9.166;2023-05-29T01:51:35;16.40;55.30
23633;DHT22;11993;48.748;9.166;2023-05-29T01:54:01;16.20;55.50
23633;DHT22;11993;48.748;9.166;2023-05-29T01:56:27;16.10;56.10
23633;DHT22;11993;48.748;9.166;2023-05-29T01:58:54;16.10;56.50
23633;DHT22;11993;48.748;9.166;2023-05-29T02:01:21;16.10;56.20
23633;DHT22;11993;48.748;9.166;2023-05-29T02:03:47;16.10;56.20
23633;DHT22;11993;48.748;9.166;2023-05-29T02:06:12;16.10;56.30
23633;DHT22;11993;48.748;9.166;2023-05-29T02:08:38;16.00;56.00
23633;DHT22;11993;48.748;9.166;2023-05-29T02:11:04;15.90;56.30
23633;DHT22;11993;48.748;9.166;2023-05-29T02:13:29;15.80;56.70
23633;DHT22;11993;48.748;9.166;2023-05-29T02:15:55;15.80;56.70
23633;DHT22;11993;48.748;9.166;2023-05-29T02:18:20;15.70;56.90
23633;DHT22;11993;48.748;9.166;2023-05-29T02:20:46;15.70;56.90
23633;DHT22;11993;48.748;9.166;2023-05-29T02:23:12;15.60;57.00
23633;DHT22;11993;48.748;9.166;2023-05-29T02:25:37;15.60;57.40
23633;DHT22;11993;48.748;9.166;2023-05-29T02:28:04;15.60;57.50
23633;DHT22;11993;48.748;9.166;2023-05-29T02:30:30;15.60;57.90
23633;DHT22;11993;48.748;9.166;2023-05-29T02:32:55;15.60;58.00
23633;DHT22;11993;48.748;9.166;2023-05-29T02:35:21;15.40;58.00
23633;DHT22;11993;48.748;9.166;2023-05-29T02:37:49;15.30;58.20
23633;DHT22;11993;48.748;9.166;2023-05-29T02:40:14;15.20;58.50
23633;DHT22;11993;48.748;9.166;2023-05-29T02:42:40;15.30;58.50
23633;DHT22;11993;48.748;9.166;2023-05-29T02:45:06;15.30;58.50
23633;DHT22;11993;48.748;9.166;2023-05-29T02:47:32;15.40;58.50
23633;DHT22;11993;48.748;9.166;2023-05-29T02:49:57;15.50;58.10
23633;DHT22;11993;48.748;9.166;2023-05-29T02:52:22;15.40;58.20
23633;DHT22;11993;48.748;9.166;2023-05-29T02:54:48;15.40;58.30
23633;DHT22;11993;48.748;9.166;2023-05-29T02:57:14;15.40;58.30
23633;DHT22;11993;48.748;9.166;2023-05-29T02:59:39;15.40;58.40
23633;DHT22;11993;48.748;9.166;2023-05-29T03:02:05;15.50;58.30
23633;DHT22;11993;48.748;9.166;2023-05-29T03:04:31;15.60;58.20
23633;DHT22;11993;48.748;9.166;2023-05-29T03:06:57;15.60;57.80
23633;DHT22;11993;48.748;9.166;2023-05-29T03:09:23;15.60;57.80
23633;DHT22;11993;48.748;9.166;2023-05-29T03:11:48;15.70;57.40
23633;DHT22;11993;48.748;9.166;2023-05-29T03:14:16;15.70;56.90
23633;DHT22;11993;48.748;9.166;2023-05-29T03:16:43;15.70;56.50
23633;DHT22;11993;48.748;9.166;2023-05-29T03:19:08;15.80;56.20
23633;DHT22;11993;48.748;9.166;2023-05-29T03:21:34;15.70;56.70
23633;DHT22;11993;48.748;9.166;2023-05-29T03:24:01;15.80;56.60
23633;DHT22;11993;48.748;9.166;2023-05-29T03:26:28;15.70;57.10
23633;DHT22;11993;48.748;9.166;2023-05-29T03:28:53;15.60;57.50
23633;DHT22;11993;48.748;9.166;2023-05-29T03:31:19;15.50;57.90
23633;DHT22;11993;48.748;9.166;2023-05-29T03:33:45;15.50;58.00
23633;DHT22;11993;48.748;9.166;2023-05-29T03:36:11;15.30;58.30
23633;DHT22;11993;48.748;9.166;2023-05-29T03:38:36;15.20;58.80
23633;DHT22;11993;48.748;9.166;2023-05-29T03:41:02;15.20;59.00
23633;DHT22;11993;48.748;9.166;2023-05-29T03:43:27;15.20;58.90
23633;DHT22;11993;48.748;9.166;2023-05-29T03:45:53;15.20;58.90
23633;DHT22;11993;48.748;9.166;2023-05-29T03:48:19;15.30;58.40
23633;DHT22;11993;48.748;9.166;2023-05-29T03:50:45;15.20;58.70
23633;DHT22;11993;48.748;9.166;2023-05-29T03:53:11;15.10;59.00
23633;DHT22;11993;48.748;9.166;2023-05-29T03:55:37;15.10;59.30
23633;DHT22;11993;48.748;9.166;2023-05-29T03:58:02;15.20;59.10
23633;DHT22;11993;48.748;9.166;2023-05-29T04:00:28;15.20;59.00
23633;DHT22;11993;48.748;9.166;2023-05-29T04:02:55;15.10;59.20
23633;DHT22;11993;48.748;9.166;2023-05-29T04:05:21;14.80;59.90
23633;DHT22;11993;48.748;9.166;2023-05-29T04:07:46;14.80;60.40
23633;DHT22;11993;48.748;9.166;2023-05-29T04:10:12;14.90;60.40
23633;DHT22;11993;48.748;9.166;2023-05-29T04:12:38;14.90;60.70
23633;DHT22;11993;48.748;9.166;2023-05-29T04:15:04;14.90;60.90
23633;DHT22;11993;48.748;9.166;2023-05-29T04:17:30;14.90;60.90
23633;DHT22;11993;48.748;9.166;2023-05-29T04:19:55;15.00;60.40
23633;DHT22;11993;48.748;9.166;2023-05-29T04:22:21;15.00;60.40
23633;DHT22;11993;48.748;9.166;2023-05-29T04:24:47;15.10;60.00
23633;DHT22;11993;48.748;9.166;2023-05-29T04:27:12;15.10;59.50
23633;DHT22;11993;48.748;9.166;2023-05-29T04:29:41;15.10;60.30
23633;DHT22;11993;48.748;9.166;2023-05-29T04:32:08;15.10;60.20
23633;DHT22;11993;48.748;9.166;2023-05-29T04:34:35;15.20;60.40
23633;DHT22;11993;48.748;9.166;2023-05-29T04:37:02;15.30;60.00
23633;DHT22;11993;48.748;9.166;2023-05-29T04:39:28;15.40;59.70
23633;DHT22;11993;48.748;9.166;2023-05-29T04:41:54;15.40;59.40
23633;DHT22;11993;48.748;9.166;2023-05-29T04:44:21;15.50;59.20
23633;DHT22;11993;48.748;9.166;2023-05-29T04:46:47;15.60;59.20
23633;DHT22;11993;48.748;9.166;2023-05-29T04:49:13;15.80;58.90
23633;DHT22;11993;48.748;9.166;2023-05-29T04:51:39;15.90;58.60
23633;DHT22;11993;48.748;9.166;2023-05-29T04:54:08;16.00;58.70
23633;DHT22;11993;48.748;9.166;2023-05-29T04:56:37;16.00;58.80
23633;DHT22;11993;48.748;9.166;2023-05-29T04:59:05;16.00;58.70
23633;DHT22;11993;48.748;9.166;2023-05-29T05:01:32;16.10;58.10
23633;DHT22;11993;48.748;9.166;2023-05-29T05:03:59;16.00;58.40
23633;DHT22;11993;48.748;9.166;2023-05-29T05:06:25;16.00;58.60
23633;DHT22;11993;48.748;9.166;2023-05-29T05:08:51;16.10;58.50
23633;DHT22;11993;48.748;9.166;2023-05-29T05:11:18;16.30;57.80
23633;DHT22;11993;48.748;9.166;2023-05-29T05:13:43;16.40;57.70
23633;DHT22;11993;48.748;9.166;2023-05-29T05:16:09;16.60;57.40
23633;DHT22;11993;48.748;9.166;2023-05-29T05:18:35;16.60;57.50
23633;DHT22;11993;48.748;9.166;2023-05-29T05:21:01;16.70;56.90
23633;DHT22;11993;48.748;9.166;2023-05-29T05:23:28;16.60;56.80
23633;DHT22;11993;48.748;9.166;2023-05-29T05:25:54;16.70;56.60
23633;DHT22;11993;48.748;9.166;2023-05-29T05:28:19;16.70;56.40
23633;DHT22;11993;48.748;9.166;2023-05-29T05:30:45;16.80;56.60
23633;DHT22;11993;48.748;9.166;2023-05-29T05:33:11;16.90;56.70
23633;DHT22;11993;48.748;9.166;2023-05-29T05:35:37;16.90;56.50
23633;DHT22;11993;48.748;9.166;2023-05-29T05:38:02;17.00;56.00
23633;DHT22;11993;48.748;9.166;2023-05-29T05:40:28;17.10;55.50
23633;DHT22;11993;48.748;9.166;2023-05-29T05:42:53;17.20;55.20
23633;DHT22;11993;48.748;9.166;2023-05-29T05:45:19;17.30;55.10
23633;DHT22;11993;48.748;9.166;2023-05-29T05:47:46;17.50;54.70
23633;DHT22;11993;48.748;9.166;2023-05-29T05:50:11;17.30;54.80
23633;DHT22;11993;48.748;9.166;2023-05-29T05:52:37;17.30;55.00
23633;DHT22;11993;48.748;9.166;2023-05-29T05:55:03;17.60;54.70
23633;DHT22;11993;48.748;9.166;2023-05-29T05:57:29;17.20;55.50
23633;DHT22;11993;48.748;9.166;2023-05-29T05:59:55;17.40;55.20
23633;DHT22;11993;48.748;9.166;2023-05-29T06:02:20;17.60;54.40
23633;DHT22;11993;48.748;9.166;2023-05-29T06:04:46;17.60;54.70
23633;DHT22;11993;48.748;9.166;2023-05-29T06:07:12;17.90;54.30
23633;DHT22;11993;48.748;9.166;2023-05-29T06:09:37;18.10;54.00
23633;DHT22;11993;48.748;9.166;2023-05-29T06:12:03;18.20;53.40
23633;DHT22;11993;48.748;9.166;2023-05-29T06:14:28;18.30;52.70
23633;DHT22;11993;48.748;9.166;2023-05-29T06:16:54;18.20;53.10
23633;DHT22;11993;48.748;9.166;2023-05-29T06:19:20;18.30;53.00
23633;DHT22;11993;48.748;9.166;2023-05-29T06:21:46;18.20;53.80
23633;DHT22;11993;48.748;9.166;2023-05-29T06:24:12;18.30;53.80
23633;DHT22;11993;48.748;9.166;2023-05-29T06:26:38;18.30;53.60
23633;DHT22;11993;48.748;9.166;2023-05-29T06:29:04;18.40;53.50
23633;DHT22;11993;48.748;9.166;2023-05-29T06:31:31;18.60;53.40
23633;DHT22;11993;48.748;9.166;2023-05-29T06:33:58;18.60;53.80
23633;DHT22;11993;48.748;9.166;2023-05-29T06:36:24;18.60;53.90
23633;DHT22;11993;48.748;9.166;2023-05-29T06:38:50;18.80;53.20
23633;DHT22;11993;48.748;9.166;2023-05-29T06:41:16;19.00;52.40
23633;DHT22;11993;48.748;9.166;2023-05-29T06:43:41;19.10;52.30
23633;DHT22;11993;48.748;9.166;2023-05-29T06:46:07;19.10;52.40
23633;DHT22;11993;48.748;9.166;2023-05-29T06:48:36;19.20;52.70
23633;DHT22;11993;48.748;9.166;2023-05-29T06:51:02;19.40;51.80
23633;DHT22;11993;48.748;9.166;2023-05-29T06:53:35;19.50;52.10
23633;DHT22;11993;48.748;9.166;2023-05-29T06:56:01;19.60;51.10
23633;DHT22;11993;48.748;9.166;2023-05-29T06:58:27;19.50;51.50
23633;DHT22;11993;48.748;9.166;2023-05-29T07:00:52;19.50;51.30
23633;DHT22;11993;48.748;9.166;2023-05-29T07:03:18;19.60;51.10
23633;DHT22;11993;48.748;9.166;2023-05-29T07:05:43;19.80;50.90
23633;DHT22;11993;48.748;9.166;2023-05-29T07:08:09;19.90;50.50
23633;DHT22;11993;48.748;9.166;2023-05-29T07:10:34;19.90;51.30
23633;DHT22;11993;48.748;9.166;2023-05-29T07:13:01;20.20;49.70
23633;DHT22;11993;48.748;9.166;2023-05-29T07:15:26;20.30;49.40
23633;DHT22;11993;48.748;9.166;2023-05-29T07:17:52;20.40;50.20
23633;DHT22;11993;48.748;9.166;2023-05-29T07:20:17;20.50;49.30
23633;DHT22;11993;48.748;9.166;2023-05-29T07:22:45;20.60;48.90
23633;DHT22;11993;48.748;9.166;2023-05-29T07:25:11;20.90;49.40
23633;DHT22;11993;48.748;9.166;2023-05-29T07:27:36;21.10;48.10
23633;DHT22;11993;48.748;9.166;2023-05-29T07:30:02;21.20;47.30
23633;DHT22;11993;48.748;9.166;2023-05-29T07:32:28;21.20;48.00
23633;DHT22;11993;48.748;9.166;2023-05-29T07:34:53;21.10;48.00
23633;DHT22;11993;48.748;9.166;2023-05-29T07:37:20;21.30;48.00
23633;DHT22;11993;48.748;9.166;2023-05-29T07:39:46;21.40;47.70
23633;DHT22;11993;48.748;9.166;2023-05-29T07:42:11;21.50;47.80
23633;DHT22;11993;48.748;9.166;2023-05-29T07:44:37;21.80;46.80
23633;DHT22;11993;48.748;9.166;2023-05-29T07:47:03;22.00;46.50
23633;DHT22;11993;48.748;9.166;2023-05-29T07:49:28;22.10;45.90
23633;DHT22;11993;48.748;9.166;2023-05-29T07:51:54;22.10;46.30
23633;DHT22;11993;48.748;9.166;2023-05-29T07:54:20;22.10;47.00
23633;DHT22;11993;48.748;9.166;2023-05-29T07:56:46;22.00;47.50
23633;DHT22;11993;48.748;9.166;2023-05-29T07:59:12;22.10;47.10
23633;DHT22;11993;48.748;9.166;2023-05-29T08:01:38;22.20;46.10
23633;DHT22;11993;48.748;9.166;2023-05-29T08:04:04;22.20;46.70
23633;DHT22;11993;48.748;9.166;2023-05-29T08:06:30;22.50;46.00
23633;DHT22;11993;48.748;9.166;2023-05-29T08:08:58;22.20;47.20
23633;DHT22;11993;48.748;9.166;2023-05-29T08:11:23;22.60;45.60
23633;DHT22;11993;48.748;9.166;2023-05-29T08:13:49;22.80;45.20
23633;DHT22;11993;48.748;9.166;2023-05-29T08:16:15;22.80;44.60
23633;DHT22;11993;48.748;9.166;2023-05-29T08:18:42;22.70;45.40
23633;DHT22;11993;48.748;9.166;2023-05-29T08:21:07;22.90;44.70
23633;DHT22;11993;48.748;9.166;2023-05-29T08:23:34;23.20;43.70
23633;DHT22;11993;48.748;9.166;2023-05-29T08:26:01;23.30;43.30
23633;DHT22;11993;48.748;9.166;2023-05-29T08:28:28;23.20;43.30
23633;DHT22;11993;48.748;9.166;2023-05-29T08:30:54;23.50;43.60
23633;DHT22;11993;48.748;9.166;2023-05-29T08:33:19;23.60;42.60
23633;DHT22;11993;48.748;9.166;2023-05-29T08:35:45;23.80;44.00
23633;DHT22;11993;48.748;9.166;2023-05-29T08:38:10;24.00;42.50
23633;DHT22;11993;48.748;9.166;2023-05-29T08:40:36;24.10;41.00
23633;DHT22;11993;48.748;9.166;2023-05-29T08:43:13;24.20;41.00
23633;DHT22;11993;48.748;9.166;2023-05-29T08:45:43;24.00;42.70
23633;DHT22;11993;48.748;9.166;2023-05-29T08:48:10;24.50;41.50
23633;DHT22;11993;48.748;9.166;2023-05-29T08:50:46;24.30;41.90
23633;DHT22;11993;48.748;9.166;2023-05-29T08:53:13;24.60;41.00
23633;DHT22;11993;48.748;9.166;2023-05-29T08:55:40;24.90;41.30
23633;DHT22;11993;48.748;9.166;2023-05-29T08:58:07;24.80;40.20
23633;DHT22;11993;48.748;9.166;2023-05-29T09:00:46;25.10;40.70
23633;DHT22;11993;48.748;9.166;2023-05-29T09:03:18;25.10;42.00
23633;DHT22;11993;48.748;9.166;2023-05-29T09:05:45;25.30;40.00
23633;DHT22;11993;48.748;9.166;2023-05-29T09:08:12;25.10;39.60
23633;DHT22;11993;48.748;9.166;2023-05-29T09:10:42;25.20;40.60
23633;DHT22;11993;48.748;9.166;2023-05-29T09:13:09;25.30;40.10
23633;DHT22;11993;48.748;9.166;2023-05-29T09:15:35;25.20;40.20
23633;DHT22;11993;48.748;9.166;2023-05-29T09:18:04;25.40;40.40
23633;DHT22;11993;48.748;9.166;2023-05-29T09:20:29;25.70;39.90
23633;DHT22;11993;48.748;9.166;2023-05-29T09:23:03;25.60;39.70
23633;DHT22;11993;48.748;9.166;2023-05-29T09:25:33;25.90;40.90
23633;DHT22;11993;48.748;9.166;2023-05-29T09:28:04;26.20;39.70
23633;DHT22;11993;48.748;9.166;2023-05-29T09:30:43;25.90;39.90
23633;DHT22;11993;48.748;9.166;2023-05-29T09:33:11;26.20;39.70
23633;DHT22;11993;48.748;9.166;2023-05-29T09:35:41;26.40;38.90
23633;DHT22;11993;48.748;9.166;2023-05-29T09:38:08;26.40;39.50
23633;DHT22;11993;48.748;9.166;2023-05-29T09:40:36;26.40;40.80
23633;DHT22;11993;48.748;9.166;2023-05-29T09:43:03;26.50;39.60
23633;DHT22;11993;48.748;9.166;2023-05-29T09:45:30;26.60;40.30
23633;DHT22;11993;48.748;9.166;2023-05-29T09:47:56;26.70;39.60
23633;DHT22;11993;48.748;9.166;2023-05-29T09:50:25;26.80;39.10
23633;DHT22;11993;48.748;9.166;2023-05-29T09:52:51;26.90;38.90
23633;DHT22;11993;48.748;9.166;2023-05-29T09:55:23;27.00;38.80
23633;DHT22;11993;48.748;9.166;2023-05-29T09:57:53;27.10;38.50
23633;DHT22;11993;48.748;9.166;2023-05-29T10:00:20;27.10;38.40
23633;DHT22;11993;48.748;9.166;2023-05-29T10:02:47;27.00;39.20
23633;DHT22;11993;48.748;9.166;2023-05-29T10:05:13;27.00;37.20
23633;DHT22;11993;48.748;9.166;2023-05-29T10:07:43;27.00;38.50
23633;DHT22;11993;48.748;9.166;2023-05-29T10:10:12;27.40;37.90
23633;DHT22;11993;48.748;9.166;2023-05-29T10:12:38;27.70;36.80
23633;DHT22;11993;48.748;9.166;2023-05-29T10:15:12;27.80;37.70
23633;DHT22;11993;48.748;9.166;2023-05-29T10:17:42;28.20;36.80
23633;DHT22;11993;48.748;9.166;2023-05-29T10:20:12;28.10;36.10
23633;DHT22;11993;48.748;9.166;2023-05-29T10:22:50;28.10;36.20
23633;DHT22;11993;48.748;9.166;2023-05-29T10:25:19;28.40;35.40
23633;DHT22;11993;48.748;9.166;2023-05-29T10:27:45;28.20;35.00
23633;DHT22;11993;48.748;9.166;2023-05-29T10:32:55;28.60;36.10
23633;DHT22;11993;48.748;9.166;2023-05-29T10:35:40;28.70;35.80
23633;DHT22;11993;48.748;9.166;2023-05-29T10:38:13;28.00;34.50
23633;DHT22;11993;48.748;9.166;2023-05-29T10:40:40;28.30;34.20
23633;DHT22;11993;48.748;9.166;2023-05-29T10:43:06;28.60;35.70
23633;DHT22;11993;48.748;9.166;2023-05-29T10:50:43;27.10;34.80
23633;DHT22;11993;48.748;9.166;2023-05-29T10:53:16;27.20;35.20
23633;DHT22;11993;48.748;9.166;2023-05-29T10:55:43;27.40;35.40
23633;DHT22;11993;48.748;9.166;2023-05-29T10:58:17;28.00;33.80
23633;DHT22;11993;48.748;9.166;2023-05-29T11:00:45;28.50;32.60
23633;DHT22;11993;48.748;9.166;2023-05-29T11:03:14;28.40;32.80
23633;DHT22;11993;48.748;9.166;2023-05-29T11:06:00;27.90;33.10
23633;DHT22;11993;48.748;9.166;2023-05-29T11:11:13;28.30;32.40
23633;DHT22;11993;48.748;9.166;2023-05-29T11:13:38;28.60;31.90
23633;DHT22;11993;48.748;9.166;2023-05-29T11:18:51;28.70;32.90
23633;DHT22;11993;48.748;9.166;2023-05-29T11:23:55;29.20;31.80
23633;DHT22;11993;48.748;9.166;2023-05-29T11:26:25;29.10;32.90
23633;DHT22;11993;48.748;9.166;2023-05-29T11:28:51;29.10;31.50
23633;DHT22;11993;48.748;9.166;2023-05-29T11:31:18;29.20;31.80
23633;DHT22;11993;48.748;9.166;2023-05-29T11:33:48;29.20;31.80
23633;DHT22;11993;48.748;9.166;2023-05-29T11:36:19;29.40;32.30
23633;DHT22;11993;48.748;9.166;2023-05-29T11:38:47;29.40;31.90
23633;DHT22;11993;48.748;9.166;2023-05-29T11:41:13;29.50;31.00
23633;DHT22;11993;48.748;9.166;2023-05-29T11:43:42;29.20;32.10
23633;DHT22;11993;48.748;9.166;2023-05-29T11:46:18;28.60;31.80
23633;DHT22;11993;48.748;9.166;2023-05-29T11:48:47;29.30;30.80
23633;DHT22;11993;48.748;9.166;2023-05-29T11:51:13;29.70;30.30
23633;DHT22;11993;48.748;9.166;2023-05-29T11:53:43;29.60;30.10
23633;DHT22;11993;48.748;9.166;2023-05-29T11:56:11;29.60;31.10
23633;DHT22;11993;48.748;9.166;2023-05-29T11:58:38;29.60;29.60
23633;DHT22;11993;48.748;9.166;2023-05-29T12:01:04;29.50;30.60
23633;DHT22;11993;48.748;9.166;2023-05-29T12:03:30;29.80;29.50
23633;DHT22;11993;48.748;9.166;2023-05-29T12:05:55;29.80;29.20
23633;DHT22;11993;48.748;9.166;2023-05-29T12:08:24;29.90;29.60
23633;DHT22;11993;48.748;9.166;2023-05-29T12:10:52;29.40;30.30
23633;DHT22;11993;48.748;9.166;2023-05-29T12:13:21;29.50;27.70
23633;DHT22;11993;48.748;9.166;2023-05-29T12:15:52;29.90;28.20
23633;DHT22;11993;48.748;9.166;2023-05-29T12:18:18;30.10;27.90
23633;DHT22;11993;48.748;9.166;2023-05-29T12:20:44;29.90;28.30
23633;DHT22;11993;48.748;9.166;2023-05-29T12:23:09;30.00;29.40
23633;DHT22;11993;48.748;9.166;2023-05-29T12:25:37;29.70;27.70
23633;DHT22;11993;48.748;9.166;2023-05-29T12:28:03;29.00;27.60
23633;DHT22;11993;48.748;9.166;2023-05-29T12:30:29;29.20;28.50
23633;DHT22;11993;48.748;9.166;2023-05-29T12:32:54;29.30;28.00
23633;DHT22;11993;48.748;9.166;2023-05-29T12:35:25;29.60;27.90
23633;DHT22;11993;48.748;9.166;2023-05-29T12:38:02;29.20;28.00
23633;DHT22;11993;48.748;9.166;2023-05-29T12:40:33;29.50;27.70
23633;DHT22;11993;48.748;9.166;2023-05-29T12:43:01;29.60;29.10
23633;DHT22;11993;48.748;9.166;2023-05-29T12:45:30;29.40;27.60
23633;DHT22;11993;48.748;9.166;2023-05-29T12:48:00;29.70;27.10
23633;DHT22;11993;48.748;9.166;2023-05-29T12:50:30;29.60;27.00
23633;DHT22;11993;48.748;9.166;2023-05-29T12:55:31;29.80;27.10
23633;DHT22;11993;48.748;9.166;2023-05-29T12:58:08;29.90;26.50
23633;DHT22;11993;48.748;9.166;2023-05-29T13:00:36;30.00;27.00
23633;DHT22;11993;48.748;9.166;2023-05-29T13:03:04;29.60;27.90
23633;DHT22;11993;48.748;9.166;2023-05-29T13:05:30;29.60;27.30
23633;DHT22;11993;48.748;9.166;2023-05-29T13:07:57;29.80;26.00
23633;DHT22;11993;48.748;9.166;2023-05-29T13:10:25;29.60;26.50
23633;DHT22;11993;48.748;9.166;2023-05-29T13:12:52;29.50;25.90
23633;DHT22;11993;48.748;9.166;2023-05-29T13:15:21;29.50;27.20
23633;DHT22;11993;48.748;9.166;2023-05-29T13:17:47;29.50;26.40
23633;DHT22;11993;48.748;9.166;2023-05-29T13:20:13;29.60;25.60
23633;DHT22;11993;48.748;9.166;2023-05-29T13:22:39;29.70;26.30
23633;DHT22;11993;48.748;9.166;2023-05-29T13:25:07;29.50;25.80
23633;DHT22;11993;48.748;9.166;2023-05-29T13:27:33;29.50;26.30
23633;DHT22;11993;48.748;9.166;2023-05-29T13:30:03;29.20;27.60
23633;DHT22;11993;48.748;9.166;2023-05-29T13:32:29;29.00;26.80
23633;DHT22;11993;48.748;9.166;2023-05-29T13:34:55;29.20;26.50
23633;DHT22;11993;48.748;9.166;2023-05-29T13:37:21;29.20;26.30
23633;DHT22;11993;48.748;9.166;2023-05-29T13:39:46;29.20;26.90
23633;DHT22;11993;48.748;9.166;2023-05-29T13:42:12;29.10;26.20
23633;DHT22;11993;48.748;9.166;2023-05-29T13:44:37;29.10;25.90
23633;DHT22;11993;48.748;9.166;2023-05-29T13:47:04;29.10;25.80
23633;DHT22;11993;48.748;9.166;2023-05-29T13:49:30;29.30;25.50
23633;DHT22;11993;48.748;9.166;2023-05-29T13:51:55;29.10;25.80
23633;DHT22;11993;48.748;9.166;2023-05-29T13:54:21;29.00;26.70
23633;DHT22;11993;48.748;9.166;2023-05-29T13:56:47;29.10;27.20
23633;DHT22;11993;48.748;9.166;2023-05-29T13:59:13;28.80;26.30
23633;DHT22;11993;48.748;9.166;2023-05-29T14:01:38;28.80;26.20
23633;DHT22;11993;48.748;9.166;2023-05-29T14:04:04;28.30;26.30
23633;DHT22;11993;48.748;9.166;2023-05-29T14:06:29;28.30;26.30
23633;DHT22;11993;48.748;9.166;2023-05-29T14:08:55;28.30;26.10
23633;DHT22;11993;48.748;9.166;2023-05-29T14:11:21;28.60;26.70
23633;DHT22;11993;48.748;9.166;2023-05-29T14:13:47;28.60;26.70
23633;DHT22;11993;48.748;9.166;2023-05-29T14:16:13;28.70;26.90
23633;DHT22;11993;48.748;9.166;2023-05-29T14:18:40;28.60;28.40
23633;DHT22;11993;48.748;9.166;2023-05-29T14:21:07;28.70;27.10
23633;DHT22;11993;48.748;9.166;2023-05-29T14:23:32;28.80;26.70
23633;DHT22;11993;48.748;9.166;2023-05-29T14:26:00;28.60;27.20
23633;DHT22;11993;48.748;9.166;2023-05-29T14:28:26;28.60;27.90
23633;DHT22;11993;48.748;9.166;2023-05-29T14:30:51;28.60;28.30
23633;DHT22;11993;48.748;9.166;2023-05-29T14:33:17;28.60;28.20
23633;DHT22;11993;48.748;9.166;2023-05-29T14:35:43;28.80;27.80
23633;DHT22;11993;48.748;9.166;2023-05-29T14:38:09;28.60;27.80
23633;DHT22;11993;48.748;9.166;2023-05-29T14:40:34;28.20;26.90
23633;DHT22;11993;48.748;9.166;2023-05-29T14:43:01;28.30;27.50
23633;DHT22;11993;48.748;9.166;2023-05-29T14:45:26;27.50;27.20
23633;DHT22;11993;48.748;9.166;2023-05-29T14:47:52;27.50;27.70
23633;DHT22;11993;48.748;9.166;2023-05-29T14:50:18;27.50;27.70
23633;DHT22;11993;48.748;9.166;2023-05-29T14:52:43;27.80;28.20
23633;DHT22;11993;48.748;9.166;2023-05-29T14:55:09;27.80;27.60
23633;DHT22;11993;48.748;9.166;2023-05-29T14:57:34;26.80;28.40
23633;DHT22;11993;48.748;9.166;2023-05-29T15:00:01;26.90;28.40
23633;DHT22;11993;48.748;9.166;2023-05-29T15:02:26;27.10;29.20
23633;DHT22;11993;48.748;9.166;2023-05-29T15:04:52;27.20;29.50
23633;DHT22;11993;48.748;9.166;2023-05-29T15:07:17;26.60;28.80
23633;DHT22;11993;48.748;9.166;2023-05-29T15:09:43;26.50;28.90
23633;DHT22;11993;48.748;9.166;2023-05-29T15:12:09;26.60;29.30
23633;DHT22;11993;48.748;9.166;2023-05-29T15:14:35;26.70;28.90
23633;DHT22;11993;48.748;9.166;2023-05-29T15:17:01;26.10;29.50
23633;DHT22;11993;48.748;9.166;2023-05-29T15:19:27;26.30;29.10
23633;DHT22;11993;48.748;9.166;2023-05-29T15:21:52;26.20;30.60
23633;DHT22;11993;48.748;9.166;2023-05-29T15:24:18;26.60;30.20
23633;DHT22;11993;48.748;9.166;2023-05-29T15:26:44;26.70;29.40
23633;DHT22;11993;48.748;9.166;2023-05-29T15:29:09;26.50;28.60
23633;DHT22;11993;48.748;9.166;2023-05-29T15:31:36;26.30;29.40
23633;DHT22;11993;48.748;9.166;2023-05-29T15:34:01;26.40;30.20
23633;DHT22;11993;48.748;9.166;2023-05-29T15:36:27;26.60;30.50
23633;DHT22;11993;48.748;9.166;2023-05-29T15:38:54;26.80;30.70
23633;DHT22;11993;48.748;9.166;2023-05-29T15:41:20;26.60;31.60
23633;DHT22;11993;48.748;9.166;2023-05-29T15:43:45;26.60;32.20
23633;DHT22;11993;48.748;9.166;2023-05-29T15:46:11;26.50;31.20
23633;DHT22;11993;48.748;9.166;2023-05-29T15:48:36;25.80;32.30
23633;DHT22;11993;48.748;9.166;2023-05-29T15:51:02;26.00;32.10